createdAt,value
2017-11-05T00:00:14.092Z,96880.14
2017-11-05T00:01:17.716Z,96891.30
2017-11-05T00:02:21.382Z,96900.33
2017-11-05T00:03:25.011Z,96905.38
2017-11-05T00:04:28.619Z,96849.03
2017-11-05T00:05:32.505Z,96911.05
2017-11-05T00:06:36.150Z,96899.64
2017-11-05T00:07:39.757Z,96917.03
2017-11-05T00:08:43.354Z,96882.75
2017-11-05T00:09:47.034Z,96887.57
2017-11-05T00:10:50.696Z,96885.15
2017-11-05T00:11:54.469Z,96867.95
2017-11-05T00:12:58.377Z,96898.52
2017-11-05T00:14:02.191Z,96878.83
2017-11-05T00:15:06.105Z,96876.69
2017-11-05T00:16:09.877Z,96891.55
2017-11-05T00:17:15.204Z,96830.05
2017-11-05T00:18:19.515Z,96873.53
2017-11-05T00:19:23.889Z,96898.22
2017-11-05T00:20:28.153Z,96868.30
2017-11-05T00:21:31.956Z,96881.74
2017-11-05T00:22:35.757Z,96880.25
2017-11-05T00:23:39.820Z,96878.27
2017-11-05T00:24:44.383Z,96867.02
2017-11-05T00:25:48.162Z,96776.56
2017-11-05T00:26:51.917Z,96868.47
2017-11-05T00:27:55.721Z,96876.55
2017-11-05T00:28:59.478Z,96844.81
2017-11-05T00:30:03.582Z,96882.44
2017-11-05T00:31:08.266Z,96875.01
2017-11-05T00:32:11.957Z,96859.66
2017-11-05T00:33:15.650Z,96883.20
2017-11-05T00:34:19.345Z,96859.55
2017-11-05T00:35:23.016Z,96832.89
2017-11-05T00:36:26.995Z,96889.98
2017-11-05T00:37:30.882Z,96885.05
2017-11-05T00:38:34.617Z,96878.17
2017-11-05T00:39:38.309Z,96878.84
2017-11-05T00:40:41.962Z,96850.68
2017-11-05T00:41:45.638Z,96893.84
2017-11-05T00:42:49.739Z,96860.28
2017-11-05T00:43:53.400Z,96838.45
2017-11-05T00:44:57.087Z,96879.41
2017-11-05T00:46:00.776Z,96872.33
2017-11-05T00:47:04.485Z,96873.39
2017-11-05T00:48:08.084Z,96854.06
2017-11-05T00:49:11.669Z,96873.88
2017-11-05T00:50:15.278Z,96867.33
2017-11-05T00:51:18.882Z,96847.02
2017-11-05T00:52:22.510Z,96866.42
2017-11-05T00:53:26.148Z,96873.28
2017-11-05T00:54:30.052Z,96870.77
2017-11-05T00:55:33.793Z,96865.31
2017-11-05T00:56:37.478Z,96868.51
2017-11-05T00:57:41.097Z,96868.23
2017-11-05T00:58:44.890Z,96870.19
2017-11-05T00:59:48.557Z,96865.45
2017-11-05T01:00:52.546Z,96836.76
2017-11-05T01:01:56.195Z,96841.34
2017-11-05T01:02:59.872Z,96862.64
2017-11-05T01:04:03.536Z,96864.97
2017-11-05T01:05:07.380Z,96853.30
2017-11-05T01:06:11.016Z,96860.86
2017-11-05T01:07:14.880Z,96862.96
2017-11-05T01:08:18.480Z,96857.66
2017-11-05T01:09:22.073Z,96848.33
2017-11-05T01:10:25.706Z,96851.17
2017-11-05T01:11:29.355Z,96844.30
2017-11-05T01:12:33.382Z,96824.05
2017-11-05T01:13:37.252Z,96838.68
2017-11-05T01:14:40.882Z,96834.34
2017-11-05T01:15:44.533Z,96853.37
2017-11-05T01:16:48.135Z,96849.23
2017-11-05T01:17:51.815Z,96838.84
2017-11-05T01:18:55.409Z,96848.87
2017-11-05T01:19:59.331Z,96861.52
2017-11-05T01:21:03.371Z,96844.20
2017-11-05T01:22:06.967Z,96832.13
2017-11-05T01:23:11.841Z,96838.54
2017-11-05T01:24:15.455Z,96837.66
2017-11-05T01:25:19.058Z,96840.08
2017-11-05T01:26:23.080Z,96832.95
2017-11-05T01:27:26.777Z,96835.24
2017-11-05T01:28:30.549Z,96843.74
2017-11-05T01:29:34.205Z,96849.30
2017-11-05T01:30:37.983Z,96837.41
2017-11-05T01:31:41.679Z,96835.63
2017-11-05T01:32:45.615Z,96840.13
2017-11-05T01:33:49.284Z,96836.09
2017-11-05T01:34:52.890Z,96844.85
2017-11-05T01:35:56.501Z,96841.55
2017-11-05T01:37:00.089Z,96843.30
2017-11-05T01:38:03.692Z,96837.37
2017-11-05T01:39:07.560Z,96835.45
2017-11-05T01:40:11.145Z,96830.44
2017-11-05T01:41:14.745Z,96837.61
2017-11-05T01:42:18.332Z,96819.02
2017-11-05T01:43:21.893Z,96822.73
2017-11-05T01:44:25.424Z,96823.08
2017-11-05T01:45:29.212Z,96800.49
2017-11-05T01:46:32.769Z,96818.41
2017-11-05T01:47:36.385Z,96819.95
2017-11-05T01:48:39.893Z,96785.59
2017-11-05T01:49:43.414Z,96809.53
2017-11-05T01:50:46.920Z,96815.06
2017-11-05T01:51:50.702Z,96809.47
2017-11-05T01:52:54.349Z,96812.14
2017-11-05T01:53:57.929Z,96787.88
2017-11-05T01:55:01.623Z,96805.65
2017-11-05T01:56:05.211Z,96816.12
2017-11-05T01:57:08.807Z,96792.11
2017-11-05T01:58:12.697Z,96804.09
2017-11-05T01:59:16.337Z,96795.44
2017-11-05T02:00:19.999Z,96788.83
2017-11-05T02:01:23.599Z,96797.98
2017-11-05T02:02:27.231Z,96776.98
2017-11-05T02:03:30.828Z,96793.63
2017-11-05T02:04:34.732Z,96794.28
2017-11-05T02:05:38.354Z,96794.91
2017-11-05T02:06:41.932Z,96795.72
2017-11-05T02:07:45.534Z,96786.91
2017-11-05T02:08:49.190Z,96798.50
2017-11-05T02:09:52.793Z,96791.91
2017-11-05T02:10:56.412Z,96818.55
2017-11-05T02:12:00.107Z,96787.42
2017-11-05T02:13:03.791Z,96788.62
2017-11-05T02:14:07.479Z,96775.24
2017-11-05T02:15:11.191Z,96790.28
2017-11-05T02:16:15.140Z,96790.34
2017-11-05T02:17:18.914Z,96735.41
2017-11-05T02:18:22.681Z,96788.02
2017-11-05T02:19:26.560Z,96786.91
2017-11-05T02:20:30.353Z,96816.63
2017-11-05T02:21:34.209Z,96772.59
2017-11-05T02:22:38.319Z,96774.89
2017-11-05T02:23:42.138Z,96784.95
2017-11-05T02:24:45.874Z,96771.41
2017-11-05T02:25:49.635Z,96770.88
2017-11-05T02:26:53.386Z,96783.13
2017-11-05T02:27:57.106Z,96776.16
2017-11-05T02:29:01.153Z,96778.42
2017-11-05T02:30:04.945Z,96775.63
2017-11-05T02:31:08.762Z,96763.81
2017-11-05T02:32:12.547Z,96776.45
2017-11-05T02:33:16.310Z,96777.63
2017-11-05T02:34:20.109Z,96742.25
2017-11-05T02:35:24.194Z,96775.42
2017-11-05T02:36:27.934Z,96777.23
2017-11-05T02:37:31.714Z,96781.84
2017-11-05T02:38:35.488Z,96772.39
2017-11-05T02:39:39.300Z,96764.28
2017-11-05T02:40:43.056Z,96777.46
2017-11-05T02:41:47.113Z,96777.67
2017-11-05T02:42:50.853Z,96776.48
2017-11-05T02:43:54.598Z,96779.01
2017-11-05T02:44:58.281Z,96774.67
2017-11-05T02:46:01.964Z,96772.66
2017-11-05T02:47:05.604Z,96770.78
2017-11-05T02:48:09.516Z,96773.14
2017-11-05T02:49:13.137Z,96763.17
2017-11-05T02:50:16.771Z,96773.02
2017-11-05T02:51:20.420Z,96753.00
2017-11-05T02:52:25.488Z,96761.87
2017-11-05T02:53:29.073Z,96773.77
2017-11-05T02:54:32.911Z,96752.36
2017-11-05T02:55:36.457Z,96769.06
2017-11-05T02:56:40.109Z,96773.95
2017-11-05T02:57:43.780Z,96760.58
2017-11-05T02:58:47.522Z,96770.55
2017-11-05T02:59:51.170Z,96773.55
2017-11-05T03:00:55.164Z,96741.97
2017-11-05T03:01:58.768Z,96766.83
2017-11-05T03:03:02.394Z,96761.66
2017-11-05T03:04:06.031Z,96781.97
2017-11-05T03:05:09.664Z,96768.47
2017-11-05T03:06:13.342Z,96772.41
2017-11-05T03:07:17.254Z,96787.05
2017-11-05T03:08:20.814Z,96750.86
2017-11-05T03:09:25.274Z,96771.01
2017-11-05T03:10:28.824Z,96778.16
2017-11-05T03:11:32.505Z,96771.89
2017-11-05T03:12:36.144Z,96758.78
2017-11-05T03:13:41.002Z,96778.25
2017-11-05T03:14:44.672Z,96760.50
2017-11-05T03:15:48.306Z,96755.42
2017-11-05T03:16:51.930Z,96775.58
2017-11-05T03:17:55.529Z,96768.02
2017-11-05T03:18:59.168Z,96758.72
2017-11-05T03:20:03.113Z,96757.98
2017-11-05T03:21:06.788Z,96777.80
2017-11-05T03:22:10.400Z,96775.98
2017-11-05T03:23:14.544Z,96750.83
2017-11-05T03:24:18.178Z,96776.97
2017-11-05T03:25:21.803Z,96756.70
2017-11-05T03:26:25.774Z,96777.92
2017-11-05T03:27:29.404Z,96777.66
2017-11-05T03:28:33.064Z,96778.14
2017-11-05T03:29:37.063Z,96757.76
2017-11-05T03:30:40.545Z,96771.38
2017-11-05T03:31:44.076Z,96773.36
2017-11-05T03:32:47.839Z,96759.88
2017-11-05T03:33:51.293Z,96769.57
2017-11-05T03:34:54.824Z,96770.70
2017-11-05T03:35:58.394Z,96772.59
2017-11-05T03:37:01.955Z,96765.83
2017-11-05T03:38:05.496Z,96771.38
2017-11-05T03:39:09.252Z,96748.20
2017-11-05T03:40:12.725Z,96777.38
2017-11-05T03:41:16.187Z,96760.34
2017-11-05T03:42:19.675Z,96776.89
2017-11-05T03:43:23.148Z,96770.61
2017-11-05T03:44:26.608Z,96783.63
2017-11-05T03:45:30.349Z,96786.11
2017-11-05T03:46:33.814Z,96777.21
2017-11-05T03:47:37.359Z,96783.31
2017-11-05T03:48:40.833Z,96786.24
2017-11-05T03:49:44.327Z,96783.38
2017-11-05T03:50:47.826Z,96784.09
2017-11-05T03:51:51.590Z,96788.19
2017-11-05T03:52:55.073Z,96784.44
2017-11-05T03:53:58.498Z,96778.25
2017-11-05T03:55:01.873Z,96771.03
2017-11-05T03:57:24.356Z,96785.33
2017-11-05T03:58:27.833Z,96768.14
2017-11-05T03:59:31.437Z,96790.84
2017-11-05T04:00:35.069Z,96781.58
2017-11-05T04:01:38.699Z,96757.53
2017-11-05T04:02:42.341Z,96783.08
2017-11-05T04:03:45.972Z,96785.59
2017-11-05T04:04:49.982Z,96789.06
2017-11-05T04:05:53.616Z,96785.34
2017-11-05T04:06:58.252Z,96786.45
2017-11-05T04:08:01.815Z,96760.03
2017-11-05T04:09:05.518Z,96784.52
2017-11-05T04:10:09.601Z,96783.63
2017-11-05T04:11:13.440Z,96792.27
2017-11-05T04:12:17.028Z,96781.16
2017-11-05T04:13:20.572Z,96788.30
2017-11-05T04:14:24.187Z,96783.59
2017-11-05T04:15:27.811Z,96768.70
2017-11-05T04:16:31.470Z,96779.66
2017-11-05T04:17:35.473Z,96779.86
2017-11-05T04:18:39.085Z,96773.88
2017-11-05T04:19:42.744Z,96781.47
2017-11-05T04:20:46.366Z,96780.09
2017-11-05T04:21:50.063Z,96784.62
2017-11-05T04:22:53.722Z,96785.33
2017-11-05T04:23:57.659Z,96765.45
2017-11-05T04:25:01.273Z,96759.20
2017-11-05T04:26:04.886Z,96773.03
2017-11-05T04:27:08.535Z,96776.44
2017-11-05T04:28:12.202Z,96778.27
2017-11-05T04:29:15.855Z,96787.26
2017-11-05T04:30:19.813Z,96727.45
2017-11-05T04:31:23.474Z,96762.30
2017-11-05T04:32:27.629Z,96774.70
2017-11-05T04:33:31.304Z,96776.97
2017-11-05T04:34:34.968Z,96777.21
2017-11-05T04:35:38.666Z,96778.77
2017-11-05T04:36:42.420Z,96777.31
2017-11-05T04:37:45.968Z,96765.38
2017-11-05T04:38:49.438Z,96764.16
2017-11-05T04:39:52.923Z,96764.17
2017-11-05T04:40:57.129Z,96766.38
2017-11-05T04:42:00.638Z,96762.01
2017-11-05T04:43:04.400Z,96759.03
2017-11-05T04:44:07.965Z,96761.61
2017-11-05T04:45:11.985Z,96762.02
2017-11-05T04:46:15.460Z,96750.48
2017-11-05T04:47:18.916Z,96748.88
2017-11-05T04:48:22.393Z,96762.64
2017-11-05T04:49:26.141Z,96758.30
2017-11-05T04:50:29.611Z,96765.62
2017-11-05T04:51:33.319Z,96751.04
2017-11-05T04:52:37.043Z,96751.41
2017-11-05T04:53:40.704Z,96766.92
2017-11-05T04:54:44.345Z,96765.70
2017-11-05T04:55:48.270Z,96754.11
2017-11-05T04:56:52.094Z,96781.22
2017-11-05T04:57:55.804Z,96763.43
2017-11-05T04:59:00.452Z,96759.78
2017-11-05T05:00:04.160Z,96750.48
2017-11-05T05:01:07.798Z,96760.10
2017-11-05T05:02:11.716Z,96764.42
2017-11-05T05:03:15.270Z,96737.88
2017-11-05T05:04:18.822Z,96745.18
2017-11-05T05:05:22.369Z,96758.36
2017-11-05T05:06:25.905Z,96753.89
2017-11-05T05:07:29.470Z,96755.22
2017-11-05T05:08:33.320Z,96751.19
2017-11-05T05:09:36.865Z,96753.37
2017-11-05T05:10:40.392Z,96760.88
2017-11-05T05:11:44.115Z,96755.36
2017-11-05T05:12:47.745Z,96762.00
2017-11-05T05:13:51.391Z,96760.30
2017-11-05T05:14:55.288Z,96753.46
2017-11-05T05:15:58.911Z,96761.44
2017-11-05T05:17:02.590Z,96764.36
2017-11-05T05:18:06.275Z,96767.25
2017-11-05T05:19:09.944Z,96761.99
2017-11-05T05:20:13.654Z,96759.45
2017-11-05T05:21:17.654Z,96756.94
2017-11-05T05:22:21.272Z,96765.27
2017-11-05T05:23:24.912Z,96755.56
2017-11-05T05:24:28.579Z,96731.25
2017-11-05T05:25:32.198Z,96782.02
2017-11-05T05:26:35.861Z,96754.92
2017-11-05T05:27:39.739Z,96754.84
2017-11-05T05:28:43.352Z,96760.59
2017-11-05T05:29:47.010Z,96715.77
2017-11-05T05:30:50.645Z,96763.29
2017-11-05T05:31:54.264Z,96757.86
2017-11-05T05:32:57.908Z,96754.37
2017-11-05T05:34:01.908Z,96763.02
2017-11-05T05:35:05.590Z,96762.78
2017-11-05T05:36:09.284Z,96748.84
2017-11-05T05:37:12.910Z,96775.82
2017-11-05T05:38:16.559Z,96765.72
2017-11-05T05:39:20.209Z,96774.25
2017-11-05T05:40:24.376Z,96753.69
2017-11-05T05:41:28.243Z,96768.33
2017-11-05T05:42:31.911Z,96771.80
2017-11-05T05:43:35.586Z,96772.25
2017-11-05T05:44:39.230Z,96773.37
2017-11-05T05:45:42.862Z,96759.80
2017-11-05T05:46:46.784Z,96754.89
2017-11-05T05:47:50.493Z,96766.83
2017-11-05T05:48:54.225Z,96767.27
2017-11-05T05:49:57.872Z,96765.00
2017-11-05T05:51:01.462Z,96765.88
2017-11-05T05:52:05.107Z,96756.14
2017-11-05T05:53:09.043Z,96764.08
2017-11-05T05:54:12.760Z,96763.67
2017-11-05T05:55:16.439Z,96753.66
2017-11-05T05:56:20.067Z,96761.67
2017-11-05T05:57:23.699Z,96759.22
2017-11-05T05:58:27.366Z,96763.69
2017-11-05T05:59:31.326Z,96776.06
2017-11-05T06:00:34.996Z,96744.30
2017-11-05T06:01:38.644Z,96759.70
2017-11-05T06:02:42.269Z,96763.42
2017-11-05T06:03:45.884Z,96759.16
2017-11-05T06:04:49.505Z,96764.66
2017-11-05T06:05:53.405Z,96761.51
2017-11-05T06:06:57.081Z,96755.95
2017-11-05T06:08:00.723Z,96751.90
2017-11-05T06:09:04.905Z,96769.79
2017-11-05T06:10:08.572Z,96766.19
2017-11-05T06:11:12.125Z,96768.31
2017-11-05T06:12:15.925Z,96783.48
2017-11-05T06:13:19.528Z,96762.85
2017-11-05T06:14:23.099Z,96763.11
2017-11-05T06:15:26.689Z,96738.17
2017-11-05T06:16:30.274Z,96740.55
2017-11-05T06:17:34.019Z,96758.41
2017-11-05T06:18:37.975Z,96758.48
2017-11-05T06:19:41.607Z,96751.20
2017-11-05T06:20:45.089Z,96746.73
2017-11-05T06:21:48.478Z,96742.97
2017-11-05T06:22:51.880Z,96761.20
2017-11-05T06:23:55.255Z,96743.83
2017-11-05T06:24:58.932Z,96749.86
2017-11-05T06:26:02.468Z,96766.08
2017-11-05T06:27:06.080Z,96766.95
2017-11-05T06:28:09.677Z,96760.31
2017-11-05T06:29:13.260Z,96745.49
2017-11-05T06:30:16.893Z,96761.02
2017-11-05T06:31:20.713Z,96749.88
2017-11-05T06:32:24.305Z,96782.56
2017-11-05T06:33:27.824Z,96766.40
2017-11-05T06:34:31.383Z,96769.17
2017-11-05T06:35:34.969Z,96766.88
2017-11-05T06:36:38.543Z,96781.92
2017-11-05T06:37:42.368Z,96780.75
2017-11-05T06:38:45.937Z,96781.75
2017-11-05T06:39:49.763Z,96766.61
2017-11-05T06:40:53.531Z,96778.67
2017-11-05T06:41:57.214Z,96776.48
2017-11-05T06:43:01.167Z,96781.34
2017-11-05T06:44:05.257Z,96786.22
2017-11-05T06:45:09.003Z,96785.41
2017-11-05T06:46:12.748Z,96790.09
2017-11-05T06:47:16.506Z,96790.44
2017-11-05T06:48:20.197Z,96780.88
2017-11-05T06:49:23.873Z,96790.92
2017-11-05T06:50:27.906Z,96791.66
2017-11-05T06:51:31.548Z,96787.85
2017-11-05T06:52:35.199Z,96788.30
2017-11-05T06:53:38.851Z,96807.80
2017-11-05T06:54:42.692Z,96809.20
2017-11-05T06:55:46.351Z,96813.58
2017-11-05T06:56:50.266Z,96808.63
2017-11-05T06:57:53.910Z,96776.30
2017-11-05T06:58:57.611Z,96822.98
2017-11-05T07:00:01.428Z,96808.70
2017-11-05T07:01:05.249Z,96808.41
2017-11-05T07:02:08.951Z,96797.03
2017-11-05T07:03:13.075Z,96817.63
2017-11-05T07:04:16.735Z,96811.31
2017-11-05T07:05:20.465Z,96824.29
2017-11-05T07:06:24.206Z,96813.42
2017-11-05T07:07:27.836Z,96825.93
2017-11-05T07:08:31.488Z,96831.80
2017-11-05T07:09:35.328Z,96839.03
2017-11-05T07:10:38.895Z,96818.84
2017-11-05T07:11:42.469Z,96826.06
2017-11-05T07:12:46.049Z,96843.08
2017-11-05T07:13:49.625Z,96769.73
2017-11-05T07:14:53.204Z,96853.40
2017-11-05T07:15:57.108Z,96836.05
2017-11-05T07:17:00.677Z,96848.12
2017-11-05T07:18:04.248Z,96850.42
2017-11-05T07:19:07.845Z,96836.22
2017-11-05T07:20:11.427Z,96859.98
2017-11-05T07:21:15.146Z,96815.91
2017-11-05T07:22:19.144Z,96859.70
2017-11-05T07:23:22.778Z,96860.75
2017-11-05T07:24:26.442Z,96862.80
2017-11-05T07:25:30.140Z,96868.87
2017-11-05T07:26:33.799Z,96842.78
2017-11-05T07:27:37.284Z,96869.62
2017-11-05T07:28:41.133Z,96847.73
2017-11-05T07:29:44.754Z,96867.53
2017-11-05T07:30:48.248Z,96867.73
2017-11-05T07:31:51.807Z,96880.91
2017-11-05T07:32:55.422Z,96860.41
2017-11-05T07:33:59.105Z,96872.66
2017-11-05T07:35:03.079Z,96869.58
2017-11-05T07:36:06.753Z,96876.09
2017-11-05T07:37:10.434Z,96876.48
2017-11-05T07:38:14.107Z,96874.09
2017-11-05T07:39:17.752Z,96883.86
2017-11-05T07:40:21.411Z,96888.70
2017-11-05T07:41:25.437Z,96867.66
2017-11-05T07:42:29.160Z,96865.75
2017-11-05T07:43:32.817Z,96888.47
2017-11-05T07:44:36.472Z,96903.61
2017-11-05T07:45:40.092Z,96866.56
2017-11-05T07:46:44.240Z,96888.47
2017-11-05T07:47:48.226Z,96893.73
2017-11-05T07:48:51.865Z,96901.92
2017-11-05T07:49:55.500Z,96899.95
2017-11-05T07:50:59.183Z,96904.72
2017-11-05T07:52:02.845Z,96926.98
2017-11-05T07:53:06.528Z,96904.36
2017-11-05T07:54:10.451Z,96934.95
2017-11-05T07:55:14.132Z,96899.34
2017-11-05T07:56:17.971Z,96880.06
2017-11-05T07:57:21.944Z,96906.77
2017-11-05T07:58:25.553Z,96927.44
2017-11-05T07:59:29.191Z,96736.44
2017-11-05T08:00:34.178Z,96815.53
2017-11-05T08:01:39.057Z,96922.09
2017-11-05T08:02:42.605Z,96912.30
2017-11-05T08:03:46.140Z,96933.74
2017-11-05T08:04:49.632Z,96926.95
2017-11-05T08:05:53.140Z,96917.50
2017-11-05T08:06:56.934Z,96942.21
2017-11-05T08:08:00.420Z,96950.70
2017-11-05T08:09:04.183Z,96934.36
2017-11-05T08:10:07.707Z,96953.13
2017-11-05T08:11:11.197Z,96959.33
2017-11-05T08:12:14.692Z,96902.91
2017-11-05T08:13:18.635Z,96951.02
2017-11-05T08:14:22.385Z,96933.85
2017-11-05T08:15:26.157Z,96959.13
2017-11-05T08:16:29.902Z,96958.26
2017-11-05T08:17:33.772Z,96938.88
2017-11-05T08:18:37.454Z,96963.96
2017-11-05T08:19:41.388Z,96961.80
2017-11-05T08:20:45.048Z,96962.18
2017-11-05T08:21:48.721Z,96951.95
2017-11-05T08:22:52.373Z,96946.70
2017-11-05T08:23:56.288Z,96955.13
2017-11-05T08:24:59.949Z,96966.36
2017-11-05T08:26:03.938Z,96997.93
2017-11-05T08:27:07.641Z,96970.98
2017-11-05T08:28:11.292Z,96957.89
2017-11-05T08:29:14.943Z,96953.78
2017-11-05T08:30:19.081Z,96960.28
2017-11-05T08:31:22.691Z,96969.69
2017-11-05T08:32:26.669Z,96952.87
2017-11-05T08:33:30.356Z,96976.84
2017-11-05T08:34:34.108Z,96956.82
2017-11-05T08:35:37.804Z,96962.37
2017-11-05T08:36:41.499Z,96969.83
2017-11-05T08:37:45.168Z,96959.89
2017-11-05T08:38:49.131Z,96966.44
2017-11-05T08:39:52.864Z,96973.64
2017-11-05T08:40:56.536Z,96955.17
2017-11-05T08:42:00.240Z,96965.45
2017-11-05T08:43:03.975Z,96965.01
2017-11-05T08:44:07.693Z,96963.19
2017-11-05T08:45:11.366Z,96888.91
2017-11-05T08:46:15.029Z,96972.34
2017-11-05T08:47:18.710Z,97008.38
2017-11-05T08:48:22.347Z,96970.99
2017-11-05T08:49:26.048Z,96979.32
2017-11-05T08:50:30.237Z,96979.28
2017-11-05T08:51:33.956Z,96933.89
2017-11-05T08:52:37.750Z,96979.58
2017-11-05T08:53:42.353Z,96972.47
2017-11-05T08:54:46.016Z,96951.63
2017-11-05T08:55:49.756Z,96916.95
2017-11-05T08:56:53.683Z,97013.44
2017-11-05T08:57:57.396Z,96988.55
2017-11-05T08:59:01.057Z,96995.20
2017-11-05T09:00:04.782Z,96951.44
2017-11-05T09:01:08.551Z,96990.75
2017-11-05T09:02:12.225Z,96986.17
2017-11-05T09:03:15.921Z,96990.95
2017-11-05T09:04:19.599Z,96977.27
2017-11-05T09:05:23.333Z,96993.45
2017-11-05T09:06:27.132Z,96990.11
2017-11-05T09:07:30.926Z,96979.58
2017-11-05T09:08:34.985Z,96991.68
2017-11-05T09:09:38.769Z,96969.48
2017-11-05T09:10:42.510Z,97005.42
2017-11-05T09:11:46.260Z,96997.05
2017-11-05T09:12:49.997Z,97014.09
2017-11-05T09:13:53.756Z,97015.79
2017-11-05T09:14:57.811Z,96949.06
2017-11-05T09:16:01.690Z,96985.09
2017-11-05T09:17:05.317Z,97005.29
2017-11-05T09:18:09.015Z,97001.44
2017-11-05T09:19:12.671Z,97004.25
2017-11-05T09:20:16.361Z,97019.12
2017-11-05T09:21:20.292Z,97007.67
2017-11-05T09:22:24.003Z,97024.94
2017-11-05T09:23:27.692Z,97004.86
2017-11-05T09:24:31.429Z,97025.93
2017-11-05T09:25:35.132Z,96921.00
2017-11-05T09:26:38.963Z,97051.82
2017-11-05T09:27:42.963Z,97030.38
2017-11-05T09:28:46.628Z,97034.20
2017-11-05T09:29:50.293Z,97001.94
2017-11-05T09:30:54.060Z,97026.75
2017-11-05T09:31:57.747Z,97031.20
2017-11-05T09:33:01.362Z,97052.13
2017-11-05T09:34:05.444Z,97048.20
2017-11-05T09:35:09.293Z,97024.04
2017-11-05T09:36:13.045Z,97013.79
2017-11-05T09:37:16.836Z,97025.85
2017-11-05T09:38:20.499Z,97055.60
2017-11-05T09:39:24.292Z,97045.53
2017-11-05T09:40:28.474Z,97061.45
2017-11-05T09:41:32.231Z,97049.00
2017-11-05T09:42:36.153Z,97053.87
2017-11-05T09:43:40.190Z,97012.35
2017-11-05T09:44:43.991Z,97036.11
2017-11-05T09:45:47.722Z,97059.93
2017-11-05T09:46:51.463Z,97110.09
2017-11-05T09:47:55.300Z,97078.89
2017-11-05T09:48:59.070Z,97066.98
2017-11-05T09:50:03.322Z,97107.22
2017-11-05T09:51:07.113Z,97091.86
2017-11-05T09:52:11.225Z,97106.09
2017-11-05T09:53:15.757Z,97072.79
2017-11-05T09:54:19.447Z,97102.81
2017-11-05T09:55:23.129Z,97071.38
2017-11-05T09:56:26.907Z,97066.00
2017-11-05T09:57:30.784Z,97092.39
2017-11-05T09:58:34.875Z,97075.92
2017-11-05T09:59:38.699Z,97093.02
2017-11-05T10:00:42.500Z,97092.84
2017-11-05T10:01:46.309Z,97084.02
2017-11-05T10:02:50.063Z,97057.66
2017-11-05T10:03:53.752Z,97081.49
2017-11-05T10:04:57.829Z,97105.55
2017-11-05T10:06:01.620Z,97104.25
2017-11-05T10:07:05.755Z,97088.47
2017-11-05T10:08:09.485Z,97090.16
2017-11-05T10:09:13.161Z,97057.52
2017-11-05T10:10:16.879Z,97090.64
2017-11-05T10:11:20.763Z,97103.06
2017-11-05T10:12:24.423Z,97107.24
2017-11-05T10:13:28.225Z,97087.31
2017-11-05T10:14:31.870Z,97120.58
2017-11-05T10:15:35.543Z,97111.95
2017-11-05T10:16:39.223Z,97113.78
2017-11-05T10:17:43.227Z,97115.48
2017-11-05T10:18:46.946Z,97125.38
2017-11-05T10:19:50.662Z,97002.92
2017-11-05T10:20:54.393Z,97074.39
2017-11-05T10:21:58.095Z,97137.66
2017-11-05T10:23:01.761Z,97133.98
2017-11-05T10:24:05.946Z,97133.25
2017-11-05T10:25:09.654Z,97131.22
2017-11-05T10:26:13.295Z,97141.05
2017-11-05T10:27:17.005Z,97137.41
2017-11-05T10:28:20.691Z,97132.58
2017-11-05T10:29:24.423Z,97132.25
2017-11-05T10:30:28.636Z,97140.38
2017-11-05T10:31:32.417Z,97131.31
2017-11-05T10:32:36.124Z,97129.75
2017-11-05T10:33:39.785Z,97137.25
2017-11-05T10:34:43.430Z,97136.55
2017-11-05T10:35:47.105Z,97109.31
2017-11-05T10:36:51.346Z,97135.79
2017-11-05T10:37:55.105Z,97146.45
2017-11-05T10:38:58.925Z,97102.34
2017-11-05T10:40:02.704Z,97139.65
2017-11-05T10:41:06.554Z,97045.56
2017-11-05T10:51:06.961Z,97165.31
2017-11-05T10:52:11.057Z,97160.03
2017-11-05T10:53:14.803Z,97147.03
2017-11-05T10:54:18.434Z,97155.41
2017-11-05T10:55:22.088Z,97158.78
2017-11-05T10:56:25.970Z,97165.91
2017-11-05T10:57:30.651Z,97129.98
2017-11-05T10:58:34.418Z,97120.05
2017-11-05T10:59:38.241Z,97147.44
2017-11-05T11:00:41.986Z,97137.88
2017-11-05T11:01:45.798Z,97146.39
2017-11-05T11:02:49.593Z,97152.87
2017-11-05T11:03:53.633Z,97137.22
2017-11-05T11:04:57.521Z,97162.88
2017-11-05T11:06:01.236Z,97165.05
2017-11-05T11:07:05.126Z,97171.98
2017-11-05T11:08:08.874Z,97170.31
2017-11-05T11:09:12.668Z,97189.34
2017-11-05T11:10:17.303Z,97143.05
2017-11-05T11:11:21.251Z,97131.01
2017-11-05T11:16:39.263Z,97169.16
2017-11-05T11:17:43.400Z,97178.86
2017-11-05T11:18:47.184Z,97181.75
2017-11-05T11:19:50.982Z,97214.77
2017-11-05T11:20:54.747Z,97191.55
2017-11-05T11:21:58.825Z,97188.32
2017-11-05T11:23:02.620Z,97190.53
2017-11-05T11:24:06.405Z,97159.59
2017-11-05T11:25:10.164Z,97193.57
2017-11-05T11:26:13.935Z,97169.78
2017-11-05T11:27:17.738Z,97175.81
2017-11-05T11:28:21.818Z,97187.49
2017-11-05T11:29:25.657Z,97195.12
2017-11-05T11:30:29.503Z,97169.59
2017-11-05T11:31:33.237Z,97187.20
2017-11-05T11:32:36.949Z,97201.92
2017-11-05T11:33:40.649Z,97198.45
2017-11-05T11:34:44.650Z,97176.53
2017-11-05T11:35:48.392Z,97202.75
2017-11-05T11:36:52.084Z,97192.47
2017-11-05T11:37:55.833Z,97206.89
2017-11-05T11:38:59.603Z,97196.85
2017-11-05T11:40:03.454Z,97203.28
2017-11-05T11:41:07.477Z,97193.28
2017-11-05T11:42:11.232Z,97205.08
2017-11-05T11:43:14.931Z,97165.66
2017-11-05T11:44:18.655Z,97162.15
2017-11-05T11:45:22.341Z,97194.06
2017-11-05T11:46:26.167Z,97192.61
2017-11-05T11:47:30.169Z,97195.89
2017-11-05T11:48:33.961Z,97205.88
2017-11-05T11:49:37.683Z,97201.63
2017-11-05T11:50:41.355Z,97178.31
2017-11-05T11:51:45.024Z,97203.75
2017-11-05T11:52:48.822Z,97222.82
2017-11-05T11:53:52.721Z,97233.75
2017-11-05T11:54:56.283Z,97232.98
2017-11-05T11:55:59.790Z,97236.60
2017-11-05T11:57:04.188Z,97229.92
2017-11-05T11:58:07.664Z,97223.80
2017-11-05T11:59:11.163Z,97221.64
2017-11-05T12:00:14.929Z,97218.64
2017-11-05T12:01:18.438Z,97198.16
2017-11-05T12:02:21.962Z,97203.98
2017-11-05T12:03:25.546Z,97217.53
2017-11-05T12:04:29.432Z,97225.69
2017-11-05T12:05:33.392Z,97208.62
2017-11-05T12:06:37.489Z,97223.74
2017-11-05T12:07:41.083Z,97227.61
2017-11-05T12:08:44.889Z,97113.33
2017-11-05T12:09:48.562Z,97226.45
2017-11-05T12:10:52.126Z,97223.66
2017-11-05T12:11:55.729Z,97229.75
2017-11-05T12:12:59.449Z,97203.05
2017-11-05T12:14:03.127Z,97254.70
2017-11-05T12:15:06.816Z,97205.03
2017-11-05T12:16:10.606Z,97202.56
2017-11-05T12:17:14.818Z,97198.11
2017-11-05T12:18:18.706Z,97186.91
2017-11-05T12:19:22.523Z,97191.38
2017-11-05T12:20:26.332Z,97228.95
2017-11-05T12:21:30.117Z,97250.05
2017-11-05T12:22:33.866Z,97235.27
2017-11-05T12:23:37.706Z,97240.02
2017-11-05T12:24:41.442Z,97231.56
2017-11-05T12:25:45.100Z,97244.76
2017-11-05T12:26:48.811Z,97232.16
2017-11-05T12:27:52.808Z,97247.69
2017-11-05T12:30:04.370Z,97238.94
2017-11-05T12:31:08.135Z,97225.80
2017-11-05T12:32:12.087Z,97232.97
2017-11-05T12:33:15.868Z,97245.46
2017-11-05T12:34:19.862Z,97150.59
2017-11-05T12:35:23.832Z,97243.34
2017-11-05T12:36:27.745Z,97215.59
2017-11-05T12:37:31.675Z,97255.39
2017-11-05T12:38:35.394Z,97198.81
2017-11-05T12:39:39.213Z,97231.81
2017-11-05T12:40:43.017Z,97218.05
2017-11-05T12:41:46.838Z,97244.11
2017-11-05T12:42:50.603Z,97239.52
2017-11-05T12:43:54.267Z,97249.87